Time;durP1;ratioP1;P1;durP2;ratioP2;P2;SDS_P1;SDS_P2;PMS_P1;PMS_P2;Temp;Humidity;BMP_temperature;BMP_pressure;BME280_temperature;BME280_humidity;BME280_pressure;Samples;Min_cycle;Max_cycle;Signal;HPM_P1;HPM_P2
2022/07/12 00:00:44;;;;;;;5.97;1.52;;;;;;;15.10;40.28;94286.00;4989578;28;20026;-79
2022/07/12 00:03:10;;;;;;;1.33;1.20;;;;;;;15.13;40.40;94322.84;4990914;28;20506;-79
2022/07/12 00:05:35;;;;;;;3.00;1.10;;;;;;;15.45;39.84;94324.75;4991214;28;20058;-78
2022/07/12 00:08:02;;;;;;;2.83;1.10;;;;;;;15.62;39.53;94313.09;4989917;28;20107;-78
2022/07/12 00:10:27;;;;;;;1.85;1.02;;;;;;;15.66;39.45;94326.59;4992282;28;20026;-79
2022/07/12 00:12:54;;;;;;;0.95;0.88;;;;;;;15.62;39.28;94312.31;4990361;28;20036;-79
2022/07/12 00:15:20;;;;;;;3.45;0.90;;;;;;;15.60;39.41;94320.66;4992204;28;20018;-80
2022/07/12 00:17:45;;;;;;;1.05;1.05;;;;;;;15.68;39.35;94324.38;5009922;28;20026;-79
2022/07/12 00:20:11;;;;;;;1.45;0.90;;;;;;;15.62;39.34;94320.34;4993700;28;20026;-79
2022/07/12 00:22:36;;;;;;;2.70;1.42;;;;;;;15.14;39.19;94257.44;4992978;28;20037;-80
2022/07/12 00:25:03;;;;;;;0.82;0.80;;;;;;;15.79;39.18;94317.50;4993020;28;21014;-79
2022/07/12 00:27:28;;;;;;;2.45;0.90;;;;;;;15.64;39.65;94326.16;4992573;28;20038;-79
2022/07/12 00:29:54;;;;;;;1.85;0.98;;;;;;;15.39;39.83;94323.41;4994879;28;20018;-79
2022/07/12 00:32:20;;;;;;;1.35;0.88;;;;;;;15.40;40.21;94329.53;4992173;28;20026;-79
2022/07/12 00:34:45;;;;;;;1.58;1.00;;;;;;;15.50;39.84;94323.00;4992844;28;20490;-79
2022/07/12 00:37:10;;;;;;;1.73;1.48;;;;;;;15.50;39.28;94296.22;4994275;28;20038;-80
2022/07/12 00:39:36;;;;;;;1.88;1.02;;;;;;;14.60;39.83;94195.88;5008433;28;20034;-79
2022/07/12 00:42:01;;;;;;;2.47;1.15;;;;;;;15.27;39.49;94271.66;4992478;28;20083;-80
2022/07/12 00:44:27;;;;;;;1.17;0.93;;;;;;;15.60;39.48;94314.53;4994936;28;20083;-80
2022/07/12 00:46:52;;;;;;;1.50;1.40;;;;;;;15.65;39.69;94319.66;4994290;28;20026;-79
2022/07/12 00:49:18;;;;;;;1.10;1.00;;;;;;;15.66;39.96;94313.97;4993773;28;20029;-79
2022/07/12 00:51:44;;;;;;;1.73;1.30;;;;;;;15.38;39.96;94295.03;4990981;28;20057;-79
2022/07/12 00:54:10;;;;;;;1.25;1.10;;;;;;;15.50;39.65;94302.31;4991974;28;20027;-80
2022/07/12 00:56:36;;;;;;;3.13;1.05;;;;;;;15.14;39.80;94270.84;4992921;28;20465;-80
2022/07/12 00:59:03;;;;;;;1.38;1.27;;;;;;;15.40;39.90;94290.09;4994164;28;20033;-79
2022/07/12 01:01:28;;;;;;;2.50;1.17;;;;;;;15.44;40.17;94312.50;4993901;28;20026;-79
2022/07/12 01:03:54;;;;;;;1.30;1.10;;;;;;;15.58;40.03;94295.31;4994664;28;20056;-79
2022/07/12 01:06:20;;;;;;;1.98;1.00;;;;;;;15.34;40.31;94307.53;4992335;28;20030;-79
2022/07/12 01:08:46;;;;;;;2.72;1.15;;;;;;;15.39;40.16;94293.91;4992747;28;20593;-79
2022/07/12 01:11:12;;;;;;;1.45;1.20;;;;;;;15.39;40.30;94310.00;4992162;28;20026;-79
2022/07/12 01:13:37;;;;;;;1.95;1.33;;;;;;;15.16;40.14;94273.94;4992161;28;20423;-80
2022/07/12 01:16:05;;;;;;;2.20;1.30;;;;;;;15.61;39.88;94311.50;4993205;28;20589;-78
2022/07/12 01:18:31;;;;;;;1.58;1.10;;;;;;;15.27;40.07;94269.75;4992463;28;20042;-79
2022/07/12 01:20:57;;;;;;;2.25;1.20;;;;;;;15.60;39.83;94303.78;5006691;28;20030;-79
2022/07/12 01:23:24;;;;;;;4.50;1.20;;;;;;;15.53;39.95;94284.81;4990539;28;20084;-79
2022/07/12 01:25:49;;;;;;;1.67;1.02;;;;;;;15.28;40.01;94265.97;4991353;28;20026;-79
2022/07/12 01:28:15;;;;;;;2.45;1.00;;;;;;;15.69;39.54;94312.56;4991389;28;20398;-80
2022/07/12 01:30:41;;;;;;;2.30;1.00;;;;;;;15.70;39.62;94298.00;4992201;28;20036;-79
2022/07/12 01:33:07;;;;;;;3.85;1.33;;;;;;;15.78;39.30;94294.47;4992150;28;20029;-79
2022/07/12 01:35:33;;;;;;;2.40;0.93;;;;;;;15.98;39.24;94307.00;4991947;28;20022;-80
2022/07/12 01:37:58;;;;;;;1.88;1.20;;;;;;;15.69;40.22;94264.28;4992601;28;20092;-79
2022/07/12 01:40:24;;;;;;;1.27;0.90;;;;;;;16.11;39.66;94308.56;4992472;28;20026;-80
2022/07/12 01:42:51;;;;;;;1.55;1.42;;;;;;;16.02;39.34;94309.78;4991472;28;20584;-80
2022/07/12 01:45:16;;;;;;;1.75;1.33;;;;;;;16.10;39.93;94306.19;4991871;28;20117;-79
2022/07/12 01:47:42;;;;;;;1.80;1.23;;;;;;;15.87;39.27;94281.72;5006504;28;20116;-79
2022/07/12 01:50:08;;;;;;;1.60;1.00;;;;;;;15.72;39.58;94295.78;4994320;28;20018;-79
2022/07/12 01:52:36;;;;;;;1.35;1.05;;;;;;;15.80;40.31;94306.41;4991408;28;20065;-79
2022/07/12 01:55:02;;;;;;;2.10;1.75;;;;;;;15.88;39.76;94296.72;5006616;28;20026;-79
2022/07/12 01:57:28;;;;;;;2.58;1.00;;;;;;;15.58;39.42;94271.97;4990706;28;20034;-80
2022/07/12 01:59:54;;;;;;;3.85;1.10;;;;;;;15.80;39.51;94287.63;4992423;28;20022;-79
2022/07/12 02:02:21;;;;;;;3.00;1.10;;;;;;;15.87;40.04;94298.59;4990736;28;20037;-79
2022/07/12 02:04:48;;;;;;;2.95;1.30;;;;;;;15.71;39.52;94299.56;4992682;28;20061;-80
2022/07/12 02:07:13;;;;;;;2.65;1.38;;;;;;;15.88;39.53;94299.38;4990345;28;20076;-79
2022/07/12 02:09:38;;;;;;;2.45;1.30;;;;;;;15.82;39.50;94281.94;4993378;28;20453;-80
2022/07/12 02:12:04;;;;;;;2.05;1.15;;;;;;;16.01;39.99;94302.84;4991237;28;20025;-79
2022/07/12 02:14:29;;;;;;;1.77;1.08;;;;;;;16.08;39.10;94277.03;4996628;28;20058;-79
2022/07/12 02:16:55;;;;;;;3.30;2.15;;;;;;;15.90;39.22;94292.56;4990139;28;20084;-78
2022/07/12 02:19:20;;;;;;;1.65;1.00;;;;;;;15.89;39.28;94300.94;4991847;28;20437;-79
2022/07/12 02:21:46;;;;;;;3.15;1.42;;;;;;;15.05;39.30;94176.38;4991592;28;20022;-79
2022/07/12 02:24:11;;;;;;;4.03;1.13;;;;;;;15.97;39.21;94310.00;4992475;28;20505;-80
2022/07/12 02:26:37;;;;;;;2.95;1.00;;;;;;;15.70;39.53;94295.31;4991599;28;20079;-79
2022/07/12 02:29:04;;;;;;;2.80;1.33;;;;;;;15.88;39.79;94304.75;5006369;28;20239;-79
2022/07/12 02:31:30;;;;;;;1.50;1.08;;;;;;;15.95;39.38;94294.25;4993193;28;20800;-79
2022/07/12 02:33:55;;;;;;;1.65;1.20;;;;;;;16.22;39.64;94298.94;4989429;28;20099;-80
2022/07/12 02:36:21;;;;;;;9.60;1.60;;;;;;;16.25;40.44;94298.25;4993079;28;20360;-80
2022/07/12 02:38:47;;;;;;;1.88;1.13;;;;;;;16.16;40.58;94305.66;4989954;28;20471;-80
2022/07/12 02:41:12;;;;;;;2.08;1.55;;;;;;;16.16;40.46;94300.28;4994391;28;20054;-79
2022/07/12 02:43:38;;;;;;;1.25;1.10;;;;;;;16.02;40.80;94289.13;4992082;28;20117;-80
2022/07/12 02:46:06;;;;;;;1.92;1.30;;;;;;;16.04;41.11;94315.59;4993443;28;20452;-80
2022/07/12 02:48:31;;;;;;;4.55;1.70;;;;;;;16.01;41.45;94305.53;4992775;28;20026;-79
2022/07/12 02:50:57;;;;;;;1.60;1.48;;;;;;;15.93;42.07;94306.44;4990214;28;20096;-79
2022/07/12 02:53:22;;;;;;;3.10;1.20;;;;;;;15.79;41.52;94296.03;4992104;28;20660;-79
2022/07/12 02:55:48;;;;;;;4.85;1.40;;;;;;;15.82;41.28;94300.72;4991778;28;20905;-79
2022/07/12 02:58:14;;;;;;;5.68;2.10;;;;;;;15.80;41.55;94305.63;4990769;28;20053;-79
2022/07/12 03:00:40;;;;;;;3.97;1.83;;;;;;;15.59;42.41;94291.53;4990556;28;20017;-79
2022/07/12 03:03:08;;;;;;;3.65;2.00;;;;;;;15.62;43.19;94318.44;4990371;28;20038;-79
2022/07/12 03:05:35;;;;;;;2.08;1.88;;;;;;;15.36;43.43;94299.91;4992507;28;20033;-80
2022/07/12 03:08:01;;;;;;;2.22;2.03;;;;;;;15.17;43.54;94254.09;4989706;28;20197;-80
2022/07/12 03:10:26;;;;;;;1.65;1.55;;;;;;;15.50;42.72;94310.38;4992311;28;20029;-79
2022/07/12 03:12:52;;;;;;;3.10;2.28;;;;;;;15.61;42.91;94327.59;4990223;28;20037;-79
2022/07/12 03:15:17;;;;;;;5.00;2.38;;;;;;;15.42;44.08;94327.31;4995267;28;20535;-79
2022/07/12 03:17:43;;;;;;;3.60;2.58;;;;;;;15.28;43.97;94298.13;4991619;28;20634;-79
2022/07/12 03:20:14;;;;;;;2.65;1.85;;;;;;;15.24;44.44;94299.91;4989985;28;20338;-80
2022/07/12 03:22:40;;;;;;;2.60;2.15;;;;;;;15.24;43.33;94291.88;4991274;28;20093;-79
2022/07/12 03:25:07;;;;;;;5.35;2.45;;;;;;;15.50;43.34;94331.81;4993194;28;20021;-79
2022/07/12 03:27:33;;;;;;;2.70;2.20;;;;;;;15.36;44.19;94342.81;4990193;28;20041;-79
2022/07/12 03:29:59;;;;;;;3.05;2.25;;;;;;;15.16;44.13;94292.72;4992083;28;20050;-80
2022/07/12 03:32:24;;;;;;;4.93;2.08;;;;;;;15.46;43.95;94326.34;4992106;28;20107;-79
2022/07/12 03:34:50;;;;;;;2.72;2.30;;;;;;;15.25;43.92;94320.22;4991302;28;20726;-80
2022/07/12 03:37:15;;;;;;;3.35;2.20;;;;;;;14.97;43.78;94276.34;4987619;28;20050;-80
2022/07/12 03:39:40;;;;;;;3.50;2.50;;;;;;;15.37;44.59;94355.09;4991265;28;20061;-80
2022/07/12 03:42:06;;;;;;;5.47;2.40;;;;;;;15.30;44.92;94344.13;4991285;28;20029;-80
2022/07/12 03:44:33;;;;;;;3.25;2.70;;;;;;;15.31;44.69;94345.69;4992216;28;20590;-80
2022/07/12 03:46:59;;;;;;;3.65;2.45;;;;;;;15.19;44.65;94326.91;4991599;28;20026;-79
2022/07/12 03:49:24;;;;;;;4.45;2.42;;;;;;;15.23;44.02;94327.81;4991791;28;20017;-79
2022/07/12 03:51:50;;;;;;;2.50;2.20;;;;;;;15.19;45.07;94348.34;4996072;28;20183;-79
2022/07/12 03:54:15;;;;;;;4.18;3.08;;;;;;;15.31;44.43;94345.69;4993853;28;20112;-79
2022/07/12 03:59:24;;;;;;;3.38;2.90;;;;;;;15.52;43.38;94343.00;4992840;28;20064;-79
2022/07/12 04:01:49;;;;;;;2.90;2.30;;;;;;;15.45;43.43;94338.16;4995476;28;20113;-79
2022/07/12 04:04:15;;;;;;;4.68;2.75;;;;;;;15.30;43.66;94317.31;4993468;28;20521;-79
2022/07/12 04:06:40;;;;;;;3.40;2.60;;;;;;;15.28;44.75;94334.84;4994781;28;20104;-79
2022/07/12 04:09:06;;;;;;;4.07;2.83;;;;;;;15.44;43.64;94322.44;4993283;28;20050;-80
2022/07/12 04:11:32;;;;;;;2.65;2.45;;;;;;;15.31;44.11;94324.25;4994452;28;20160;-79
2022/07/12 04:13:58;;;;;;;2.70;2.20;;;;;;;15.61;43.18;94338.31;4992355;28;20034;-79
2022/07/12 04:16:24;;;;;;;4.53;2.80;;;;;;;15.48;43.31;94319.88;4994291;28;20033;-79
2022/07/12 04:18:49;;;;;;;2.72;2.53;;;;;;;15.78;43.80;94359.59;4993489;28;20036;-80
2022/07/12 04:21:15;;;;;;;3.35;2.42;;;;;;;15.45;44.05;94356.94;4993627;28;20029;-79
2022/07/12 04:23:40;;;;;;;3.78;3.05;;;;;;;15.62;43.60;94344.47;4992385;28;20085;-79
2022/07/12 04:26:05;;;;;;;2.60;2.40;;;;;;;15.80;43.77;94368.09;5005739;28;20030;-79
2022/07/12 04:28:31;;;;;;;3.15;2.85;;;;;;;15.77;44.34;94365.31;4995540;28;20034;-79
2022/07/12 04:30:56;;;;;;;2.60;2.40;;;;;;;15.40;44.43;94370.50;4993327;28;20022;-79
2022/07/12 04:33:22;;;;;;;3.85;2.72;;;;;;;15.71;44.55;94380.03;4992976;28;20379;-79
2022/07/12 04:35:47;;;;;;;6.38;3.83;;;;;;;15.88;43.69;94379.84;4993684;28;20025;-80
2022/07/12 04:38:13;;;;;;;3.85;2.63;;;;;;;15.62;44.52;94385.47;4994973;28;20057;-79
2022/07/12 04:40:38;;;;;;;5.57;2.70;;;;;;;15.83;44.31;94372.03;4993279;28;20037;-79
2022/07/12 04:43:04;;;;;;;2.83;2.40;;;;;;;15.88;44.61;94386.00;4992751;28;20033;-79
2022/07/12 04:45:29;;;;;;;3.22;2.70;;;;;;;15.88;44.16;94363.75;4992333;28;20033;-79
2022/07/12 04:47:54;;;;;;;3.65;2.95;;;;;;;15.58;44.31;94376.53;4995394;28;20022;-80
2022/07/12 04:50:20;;;;;;;4.25;3.20;;;;;;;15.60;44.70;94354.75;4993130;28;20063;-79
2022/07/12 04:52:45;;;;;;;5.43;3.35;;;;;;;15.22;45.65;94371.78;4993772;28;20026;-79
2022/07/12 04:55:11;;;;;;;4.78;3.30;;;;;;;14.99;46.15;94354.50;4992996;28;20092;-79
2022/07/12 04:57:36;;;;;;;4.97;2.58;;;;;;;15.31;46.73;94367.13;4994755;28;20030;-79
2022/07/12 05:00:05;;;;;;;5.25;2.95;;;;;;;15.31;45.99;94385.88;4993444;28;20072;-79
2022/07/12 05:02:30;;;;;;;10.05;3.60;;;;;;;15.33;46.12;94375.63;4990690;28;20109;-79
2022/07/12 05:04:56;;;;;;;9.98;4.03;;;;;;;15.89;45.93;94386.75;4995139;28;20032;-79
2022/07/12 05:07:21;;;;;;;3.78;3.40;;;;;;;15.73;45.88;94362.50;4993097;28;22007;-79
2022/07/12 05:09:47;;;;;;;4.55;3.20;;;;;;;16.24;45.18;94387.16;4992436;28;20022;-80
2022/07/12 05:12:12;;;;;;;4.88;3.25;;;;;;;16.46;44.55;94383.28;4997206;28;20022;-79
2022/07/12 05:14:38;;;;;;;5.30;3.65;;;;;;;16.21;44.82;94350.25;4992728;28;20022;-80
2022/07/12 05:17:03;;;;;;;5.30;3.63;;;;;;;16.20;44.29;94387.06;4991760;28;20401;-79
2022/07/12 05:19:29;;;;;;;4.93;4.00;;;;;;;16.23;44.27;94369.50;5007716;28;20030;-79
2022/07/12 05:21:54;;;;;;;4.80;3.65;;;;;;;16.62;44.21;94360.03;4991281;28;20029;-80
2022/07/12 05:24:20;;;;;;;5.15;4.15;;;;;;;16.60;43.84;94356.88;4992374;28;20553;-79
2022/07/12 05:26:45;;;;;;;4.97;4.18;;;;;;;16.88;43.24;94371.16;4992605;28;20025;-79
2022/07/12 05:29:10;;;;;;;5.07;3.70;;;;;;;16.59;43.59;94361.47;4991072;28;20018;-79
2022/07/12 05:31:36;;;;;;;5.55;3.38;;;;;;;16.73;43.65;94383.38;4994137;28;20486;-80
2022/07/12 05:34:01;;;;;;;8.68;3.45;;;;;;;16.86;43.34;94351.94;4991780;28;20151;-79
2022/07/12 05:36:28;;;;;;;6.70;3.85;;;;;;;17.14;43.23;94387.72;4993628;28;20021;-80
2022/07/12 05:38:53;;;;;;;5.65;3.25;;;;;;;17.18;42.54;94364.41;4991799;28;20033;-79
2022/07/12 05:41:19;;;;;;;7.70;4.15;;;;;;;16.62;43.56;94352.72;4994536;28;20033;-79
2022/07/12 05:43:45;;;;;;;11.05;3.95;;;;;;;16.79;43.76;94357.06;4992886;28;20060;-79
2022/07/12 05:46:11;;;;;;;11.55;3.70;;;;;;;16.98;43.73;94359.16;4990474;28;20438;-80
2022/07/12 05:48:37;;;;;;;5.35;4.35;;;;;;;17.22;44.33;94382.53;4992844;28;20026;-79
2022/07/12 05:53:47;;;;;;;6.18;2.30;;;;;;;16.29;42.13;94344.78;4992699;28;20118;-80
2022/07/12 05:56:14;;;;;;;2.13;1.55;;;;;;;16.73;41.25;94367.25;4991232;28;20034;-79
2022/07/12 05:58:40;;;;;;;2.70;1.27;;;;;;;16.04;41.44;94358.50;4992458;28;20028;-79
2022/07/12 06:01:06;;;;;;;3.22;1.33;;;;;;;16.33;42.50;94377.13;4990786;28;20030;-79
2022/07/12 06:03:31;;;;;;;1.30;1.10;;;;;;;16.33;40.80;94384.41;4994250;28;20037;-79
2022/07/12 06:05:57;;;;;;;1.15;0.90;;;;;;;16.67;41.63;94370.53;4992005;28;20030;-79
2022/07/12 06:08:22;;;;;;;3.67;1.50;;;;;;;16.22;41.29;94352.63;4991326;28;20057;-77
2022/07/12 06:10:48;;;;;;;3.65;1.20;;;;;;;15.99;40.68;94386.34;4989562;28;20030;-79
2022/07/12 06:13:13;;;;;;;5.15;1.10;;;;;;;15.83;41.75;94386.22;4992007;28;20038;-78
2022/07/12 06:15:38;;;;;;;1.70;1.00;;;;;;;15.86;41.78;94377.50;4993782;28;20123;-80
2022/07/12 06:18:04;;;;;;;4.97;1.17;;;;;;;15.97;41.74;94372.50;4983970;28;20394;-80
2022/07/12 06:20:29;;;;;;;4.55;1.20;;;;;;;15.92;41.84;94348.56;4982055;28;20026;-80
2022/07/12 06:22:55;;;;;;;2.45;1.30;;;;;;;15.97;41.87;94358.28;4983238;28;20552;-81
2022/07/12 06:25:21;;;;;;;1.88;1.10;;;;;;;15.95;42.12;94379.28;4987976;28;20044;-81
2022/07/12 06:27:47;;;;;;;2.55;1.17;;;;;;;16.11;42.00;94353.38;4986778;28;20393;-80
2022/07/12 06:30:15;;;;;;;1.20;1.10;;;;;;;16.17;41.13;94354.75;4991404;28;20022;-80
2022/07/12 06:32:40;;;;;;;2.38;1.00;;;;;;;16.26;41.21;94353.50;4990956;28;20496;-80
2022/07/12 06:35:06;;;;;;;1.70;0.93;;;;;;;16.12;42.05;94384.47;4991180;28;20471;-81
2022/07/12 06:37:32;;;;;;;2.65;1.20;;;;;;;16.22;42.26;94371.41;5005314;28;20076;-81
2022/07/12 06:39:57;;;;;;;2.65;1.30;;;;;;;16.28;42.33;94366.59;4989058;28;20940;-81
2022/07/12 06:42:22;;;;;;;3.38;1.23;;;;;;;15.88;41.48;94348.47;4988681;28;20041;-80
2022/07/12 06:44:48;;;;;;;2.40;1.20;;;;;;;16.19;40.77;94365.91;4987793;28;20087;-81
2022/07/12 06:47:13;;;;;;;1.23;1.10;;;;;;;16.37;41.41;94342.38;4995132;28;20034;-80
2022/07/12 06:49:38;;;;;;;4.10;1.40;;;;;;;16.05;41.48;94352.03;4993871;28;20014;-80
2022/07/12 06:52:04;;;;;;;1.83;1.00;;;;;;;16.44;41.36;94346.03;4985689;28;20029;-80
2022/07/12 06:54:30;;;;;;;1.58;0.95;;;;;;;16.61;40.53;94348.50;4983284;28;20080;-80
2022/07/12 06:56:55;;;;;;;5.75;1.25;;;;;;;16.36;40.85;94346.94;4989680;28;20095;-81
2022/07/12 06:59:21;;;;;;;1.90;1.20;;;;;;;16.75;40.50;94358.88;4986416;28;20042;-79
2022/07/12 07:01:46;;;;;;;2.33;1.38;;;;;;;16.04;41.48;94246.63;4991297;28;20545;-80
2022/07/12 07:04:12;;;;;;;1.45;1.35;;;;;;;16.60;40.95;94340.75;4991055;28;20557;-80
2022/07/12 07:06:37;;;;;;;3.08;1.20;;;;;;;16.83;40.98;94371.38;4989770;28;20033;-81
2022/07/12 07:09:07;;;;;;;1.05;0.88;;;;;;;16.73;39.88;94350.38;4989398;28;20160;-80
2022/07/12 07:11:33;;;;;;;3.58;1.52;;;;;;;16.78;40.53;94358.19;4990322;28;20483;-81
2022/07/12 07:13:59;;;;;;;1.30;0.93;;;;;;;16.82;39.96;94369.81;4989641;28;20299;-80
2022/07/12 07:16:24;;;;;;;2.45;1.20;;;;;;;16.77;40.67;94349.34;4991620;28;20030;-80
2022/07/12 07:18:50;;;;;;;1.55;1.10;;;;;;;16.64;40.17;94330.91;4990387;28;20038;-80
2022/07/12 07:21:15;;;;;;;3.55;1.45;;;;;;;17.03;40.31;94364.28;4986955;28;20513;-80
2022/07/12 07:23:41;;;;;;;2.10;1.20;;;;;;;17.04;40.48;94368.56;4987602;28;20036;-81
2022/07/12 07:26:06;;;;;;;1.70;1.13;;;;;;;16.83;40.87;94376.75;4989892;28;20034;-80
2022/07/12 07:28:31;;;;;;;6.15;1.20;;;;;;;17.02;39.95;94374.25;4977248;28;20022;-80
2022/07/12 07:30:58;;;;;;;7.38;1.10;;;;;;;17.17;40.27;94364.72;4993275;28;20041;-79
2022/07/12 07:33:24;;;;;;;3.70;0.98;;;;;;;16.97;39.71;94371.81;4993614;28;20116;-80
2022/07/12 07:35:51;;;;;;;3.40;0.82;;;;;;;17.09;38.92;94371.78;4993479;28;20057;-81
2022/07/12 07:38:18;;;;;;;1.65;0.80;;;;;;;17.36;38.15;94367.56;4993293;28;20049;-81
2022/07/12 07:40:43;;;;;;;1.88;0.95;;;;;;;16.92;39.35;94323.69;4992144;28;20034;-80
2022/07/12 07:43:09;;;;;;;1.13;0.93;;;;;;;16.70;39.49;94333.03;4982982;28;20076;-79
2022/07/12 07:45:35;;;;;;;1.30;0.93;;;;;;;16.60;39.48;94341.56;4988590;28;20041;-81
2022/07/12 07:48:00;;;;;;;1.45;1.25;;;;;;;16.84;39.86;94351.47;4991598;28;20038;-80
2022/07/12 07:50:26;;;;;;;2.33;0.90;;;;;;;16.75;40.62;94359.66;4990644;28;20037;-80
2022/07/12 07:52:51;;;;;;;8.23;0.73;;;;;;;16.37;39.43;94342.38;4990972;28;20025;-80
2022/07/12 07:55:17;;;;;;;2.15;1.38;;;;;;;16.26;40.13;94321.31;4991891;28;20030;-80
2022/07/12 07:57:43;;;;;;;4.18;0.80;;;;;;;16.35;38.94;94368.75;4990812;28;20092;-80
2022/07/12 08:00:09;;;;;;;0.98;0.88;;;;;;;16.08;39.95;94336.06;4990430;28;20040;-80
2022/07/12 08:02:35;;;;;;;1.70;1.25;;;;;;;16.47;39.26;94364.19;4989664;28;20025;-80
2022/07/12 08:05:00;;;;;;;2.05;0.88;;;;;;;16.24;39.56;94339.63;4992754;28;20038;-80
2022/07/12 08:07:26;;;;;;;1.20;0.90;;;;;;;16.61;40.57;94366.50;4992051;28;20507;-80
2022/07/12 08:09:51;;;;;;;4.40;1.15;;;;;;;16.48;39.11;94327.34;5008116;28;20030;-80
2022/07/12 08:12:17;;;;;;;6.45;1.48;;;;;;;16.80;38.47;94355.19;4992144;28;20102;-80
2022/07/12 08:14:42;;;;;;;1.35;0.75;;;;;;;16.71;37.33;94368.75;4993700;28;20029;-80
2022/07/12 08:17:08;;;;;;;0.73;0.65;;;;;;;16.30;37.00;94311.50;4993349;28;20030;-80
2022/07/12 08:19:33;;;;;;;1.58;0.65;;;;;;;16.75;37.47;94356.97;4993889;28;20461;-80
2022/07/12 08:21:59;;;;;;;2.05;0.98;;;;;;;16.46;39.00;94281.28;4992139;28;20061;-80
2022/07/12 08:24:24;;;;;;;0.75;0.60;;;;;;;17.08;39.13;94354.09;4993392;28;20029;-80
2022/07/12 08:26:50;;;;;;;6.43;0.88;;;;;;;16.84;36.79;94351.47;4991759;28;20445;-81
2022/07/12 08:29:15;;;;;;;2.22;0.95;;;;;;;16.66;38.03;94334.06;4988064;28;20068;-80
2022/07/12 08:31:41;;;;;;;0.77;0.70;;;;;;;16.72;36.54;94340.75;4988593;28;20467;-80
2022/07/12 08:34:07;;;;;;;0.70;0.60;;;;;;;16.77;37.67;94351.25;4993987;28;20065;-81
2022/07/12 08:36:32;;;;;;;1.70;1.00;;;;;;;16.63;37.34;94327.44;4991547;28;20027;-81
2022/07/12 08:38:57;;;;;;;0.85;0.70;;;;;;;16.82;37.50;94334.13;4991829;28;20492;-81
2022/07/12 08:41:23;;;;;;;2.70;0.80;;;;;;;17.26;37.47;94335.03;4992182;28;20057;-81
2022/07/12 08:43:48;;;;;;;1.92;0.73;;;;;;;16.97;37.36;94301.94;4996029;28;20025;-80
2022/07/12 08:46:15;;;;;;;1.70;0.80;;;;;;;16.72;34.24;94295.09;4991764;28;20040;-80
2022/07/12 08:48:42;;;;;;;3.17;1.05;;;;;;;16.95;35.09;94341.81;4992271;28;20022;-80
2022/07/12 08:51:10;;;;;;;4.97;0.95;;;;;;;16.82;37.00;94326.84;4993460;28;20536;-80
2022/07/12 08:53:36;;;;;;;2.28;0.90;;;;;;;16.96;37.68;94338.03;4991697;28;20033;-80
2022/07/12 08:56:03;;;;;;;0.68;0.60;;;;;;;17.20;37.57;94325.66;4996041;28;20081;-80
2022/07/12 08:58:29;;;;;;;4.18;1.00;;;;;;;16.92;37.69;94310.25;4997859;28;20049;-80
2022/07/12 09:00:54;;;;;;;1.10;0.80;;;;;;;17.17;38.75;94322.50;4990179;28;20117;-80
2022/07/12 09:03:20;;;;;;;2.25;0.82;;;;;;;17.15;37.25;94286.38;4991781;28;20042;-81
2022/07/12 09:05:53;;;;;;;3.40;0.80;;;;;;;17.50;36.18;94318.78;4994996;28;20095;-80
2022/07/12 09:08:25;;;;;;;3.25;1.20;;;;;;;17.70;34.56;94314.31;4989949;28;20048;-80
2022/07/12 09:11:04;;;;;;;0.77;0.60;;;;;;;17.60;33.91;94329.03;4998694;28;20029;-80
2022/07/12 09:13:52;;;;;;;0.90;0.60;;;;;;;17.68;33.70;94317.34;4992372;28;20034;-80
2022/07/12 09:16:21;;;;;;;0.75;0.63;;;;;;;17.89;34.09;94293.66;4991584;28;20436;-81
2022/07/12 09:18:46;;;;;;;1.92;0.57;;;;;;;17.94;33.32;94306.13;5008421;28;20104;-80
2022/07/12 09:21:23;;;;;;;0.98;0.70;;;;;;;17.74;33.79;94299.03;4993028;28;20029;-81
2022/07/12 09:24:06;;;;;;;0.85;0.60;;;;;;;17.16;34.00;94307.50;4992781;28;20025;-80
2022/07/12 09:26:33;;;;;;;0.63;0.60;;;;;;;17.38;33.68;94311.56;4989806;28;20045;-81
2022/07/12 09:29:09;;;;;;;0.65;0.60;;;;;;;17.47;35.13;94324.84;5008697;28;20018;-81
2022/07/12 09:36:06;;;;;;;1.05;0.82;;;;;;;17.26;35.03;94300.09;4991038;28;20050;-79
2022/07/12 09:37:14;;;;;;;2.10;0.70;;;;;;;17.23;36.05;94300.75;4988589;28;20164;-80
2022/07/12 09:39:40;;;;;;;2.47;0.60;;;;;;;17.43;34.75;94313.22;4991180;28;20030;-81
2022/07/12 09:42:11;;;;;;;0.77;0.50;;;;;;;17.27;35.92;94291.66;4982732;28;20072;-79
2022/07/12 09:44:37;;;;;;;0.90;0.77;;;;;;;17.68;35.75;94311.97;4983260;28;20038;-81
2022/07/12 09:47:03;;;;;;;0.77;0.70;;;;;;;17.42;34.82;94271.31;4985643;28;20033;-79
2022/07/12 09:49:29;;;;;;;1.10;0.88;;;;;;;17.57;34.11;94308.22;4984092;28;20022;-80
2022/07/12 09:51:56;;;;;;;1.38;0.70;;;;;;;17.18;34.62;94283.75;4985063;28;20030;-80
2022/07/12 09:54:27;;;;;;;3.38;0.93;;;;;;;17.42;34.37;94327.78;4983492;28;20030;-80
2022/07/12 09:56:55;;;;;;;1.65;0.80;;;;;;;17.34;33.75;94315.28;4977214;28;20149;-80
2022/07/12 09:59:24;;;;;;;0.68;0.55;;;;;;;17.41;34.13;94299.31;4982126;28;20026;-81
2022/07/12 10:01:52;;;;;;;1.27;0.73;;;;;;;17.28;34.58;94284.38;4993271;28;20048;-80
2022/07/12 10:04:21;;;;;;;1.73;0.63;;;;;;;17.31;34.37;94289.84;4987702;28;20036;-80
2022/07/12 10:06:47;;;;;;;2.38;0.50;;;;;;;17.24;34.29;94270.06;4981251;28;20681;-80
2022/07/12 10:09:13;;;;;;;0.60;0.60;;;;;;;17.61;33.69;94311.78;4982929;28;20043;-79
2022/07/12 10:11:40;;;;;;;1.42;0.50;;;;;;;17.63;33.18;94289.91;4985699;28;20041;-80
2022/07/12 10:14:11;;;;;;;0.80;0.60;;;;;;;17.49;34.02;94301.88;4983508;28;20561;-79
2022/07/12 10:16:38;;;;;;;1.90;0.77;;;;;;;17.36;33.06;94270.00;4985574;28;20061;-80
2022/07/12 10:19:23;;;;;;;0.88;0.50;;;;;;;17.58;32.71;94301.72;4988282;28;20876;-80
2022/07/12 10:21:50;;;;;;;1.00;0.77;;;;;;;17.68;33.33;94314.66;4987230;28;20715;-80
2022/07/12 10:24:31;;;;;;;2.47;0.57;;;;;;;17.73;32.00;94303.66;4983839;28;20030;-80
2022/07/12 10:27:20;;;;;;;1.58;0.45;;;;;;;17.71;31.20;94287.06;4982589;28;20091;-79
2022/07/12 10:29:51;;;;;;;2.15;0.60;;;;;;;17.63;31.91;94301.47;4983586;28;20022;-79
2022/07/12 10:32:33;;;;;;;0.75;0.75;;;;;;;17.63;31.89;94279.94;4980595;28;20109;-79
2022/07/12 10:35:07;;;;;;;0.82;0.60;;;;;;;17.88;31.89;94296.72;4989671;28;20034;-80
2022/07/12 10:37:35;;;;;;;0.93;0.60;;;;;;;17.89;31.69;94287.50;4990311;28;20446;-80
2022/07/12 10:40:17;;;;;;;1.52;0.70;;;;;;;18.07;33.26;94298.72;4990201;28;20397;-80
2022/07/12 10:43:04;;;;;;;2.67;0.60;;;;;;;18.08;31.60;94292.22;4988016;28;20038;-80
2022/07/12 10:45:38;;;;;;;5.18;0.60;;;;;;;17.70;31.90;94247.06;4991246;28;20057;-80
2022/07/12 10:48:05;;;;;;;2.05;0.52;;;;;;;17.78;31.86;94298.00;4989599;28;20697;-80
2022/07/12 10:50:43;;;;;;;1.98;1.05;;;;;;;17.88;32.41;94292.09;4988430;28;20309;-81
2022/07/12 10:53:27;;;;;;;1.15;0.40;;;;;;;17.94;31.82;94295.34;4986134;28;20156;-80
2022/07/12 10:56:18;;;;;;;2.25;0.80;;;;;;;18.15;32.46;94287.78;4985506;28;20022;-80
2022/07/12 10:59:13;;;;;;;1.75;0.60;;;;;;;18.27;32.00;94297.66;4990997;28;20025;-80
2022/07/12 11:01:44;;;;;;;0.60;0.50;;;;;;;18.33;32.53;94293.59;4980689;28;20522;-80
2022/07/12 11:04:10;;;;;;;0.90;0.65;;;;;;;18.36;31.99;94282.09;4992152;28;21285;-80
2022/07/12 11:06:41;;;;;;;2.05;0.90;;;;;;;18.38;32.66;94288.69;4991902;28;20072;-80
2022/07/12 11:09:08;;;;;;;3.70;0.70;;;;;;;18.59;30.08;94291.09;4988759;28;20058;-80
2022/07/12 11:11:39;;;;;;;1.55;0.60;;;;;;;18.64;30.71;94290.03;4991012;28;20402;-80
2022/07/12 11:14:04;;;;;;;0.60;0.60;;;;;;;18.12;33.19;94255.41;5003613;28;20080;-80
2022/07/12 11:16:30;;;;;;;2.72;0.77;;;;;;;18.47;32.44;94291.22;4990771;28;20026;-80
2022/07/12 11:18:56;;;;;;;0.47;0.47;;;;;;;18.34;31.38;94281.66;4989902;28;20045;-80
2022/07/12 11:21:23;;;;;;;0.60;0.52;;;;;;;18.49;33.08;94302.41;4990876;28;20271;-79
2022/07/12 11:23:49;;;;;;;1.25;0.80;;;;;;;18.32;32.70;94287.41;4990136;28;20026;-80
2022/07/12 11:26:15;;;;;;;0.95;0.85;;;;;;;18.06;33.47;94271.03;4990604;28;20486;-79
2022/07/12 11:28:43;;;;;;;1.38;0.70;;;;;;;18.34;32.75;94308.59;4990621;28;20018;-80
2022/07/12 11:31:17;;;;;;;1.55;0.68;;;;;;;18.26;32.60;94296.09;4990571;28;20597;-79
2022/07/12 11:33:45;;;;;;;3.70;0.73;;;;;;;18.19;33.20;94263.63;4990371;28;20523;-80
2022/07/12 11:36:12;;;;;;;0.70;0.70;;;;;;;18.35;32.53;94288.63;4987790;28;20352;-80
2022/07/12 11:38:40;;;;;;;1.60;0.73;;;;;;;18.39;33.85;94282.19;4986800;28;20022;-80
2022/07/12 11:41:07;;;;;;;2.45;0.80;;;;;;;18.24;34.02;94287.59;4984801;28;20029;-80